Time;durP1;ratioP1;P1;durP2;ratioP2;P2;SDS_P1;SDS_P2;PMS_P1;PMS_P2;Temp;Humidity;BMP_temperature;BMP_pressure;BME280_temperature;BME280_humidity;BME280_pressure;Samples;Min_cycle;Max_cycle;Signal;HPM_P1;HPM_P2
2023/08/05 00:00:07;;;;;;;7.07;3.63;;;15.90;99.90;;;;;;4937221;28;20046;-53
2023/08/05 00:02:33;;;;;;;7.38;3.88;;;15.90;99.90;;;;;;4949816;28;20128;-53
2023/08/05 00:04:58;;;;;;;5.80;3.70;;;15.90;99.90;;;;;;4950601;28;20042;-52
2023/08/05 00:07:24;;;;;;;5.10;3.67;;;15.90;99.90;;;;;;4952712;28;20047;-51
2023/08/05 00:09:50;;;;;;;6.47;3.58;;;15.80;99.90;;;;;;4952971;28;20351;-54
2023/08/05 00:12:16;;;;;;;8.75;3.90;;;15.80;99.90;;;;;;4951963;28;20065;-51
2023/08/05 00:14:42;;;;;;;11.02;3.53;;;15.80;99.90;;;;;;4933481;28;20082;-52
2023/08/05 00:17:08;;;;;;;8.90;3.85;;;15.80;99.90;;;;;;4952246;28;20046;-54
2023/08/05 00:19:33;;;;;;;6.95;4.00;;;15.80;99.90;;;;;;4933414;28;20585;-53
2023/08/05 00:22:00;;;;;;;6.82;3.97;;;15.70;99.90;;;;;;4949414;28;20089;-53
2023/08/05 00:24:25;;;;;;;7.15;3.90;;;15.70;99.90;;;;;;4948141;28;20112;-54
2023/08/05 00:26:51;;;;;;;10.07;4.10;;;15.70;99.90;;;;;;4952281;28;20747;-53
2023/08/05 00:29:17;;;;;;;8.13;4.25;;;15.70;99.90;;;;;;4948439;28;20039;-54
2023/08/05 00:31:42;;;;;;;12.45;4.32;;;15.70;99.90;;;;;;4918270;28;20609;-53
2023/08/05 00:34:08;;;;;;;6.38;4.00;;;15.70;99.90;;;;;;4952108;28;20047;-54
2023/08/05 00:36:34;;;;;;;6.78;3.80;;;15.60;99.90;;;;;;4935282;28;20047;-53
2023/08/05 00:39:00;;;;;;;8.20;4.15;;;15.60;99.90;;;;;;4919868;28;20109;-54
2023/08/05 00:41:25;;;;;;;6.85;4.25;;;15.60;99.90;;;;;;4946564;28;20402;-52
2023/08/05 00:43:51;;;;;;;7.45;3.95;;;15.60;99.90;;;;;;4953498;28;20038;-52
2023/08/05 00:46:18;;;;;;;10.25;4.38;;;15.50;99.90;;;;;;4932763;28;20085;-53
2023/08/05 00:48:44;;;;;;;7.57;4.05;;;15.50;99.90;;;;;;4933343;28;20054;-52
2023/08/05 00:51:11;;;;;;;7.03;4.15;;;15.50;99.90;;;;;;4952051;28;20086;-53
2023/08/05 00:53:37;;;;;;;8.43;4.00;;;15.50;99.90;;;;;;4949436;28;20494;-54
2023/08/05 00:56:03;;;;;;;9.80;3.80;;;15.50;99.90;;;;;;4954264;28;20034;-50
2023/08/05 00:58:31;;;;;;;7.88;3.88;;;15.50;99.90;;;;;;4949143;28;20134;-51
2023/08/05 01:00:57;;;;;;;6.53;4.07;;;15.50;99.90;;;;;;4950834;28;20197;-51
2023/08/05 01:03:23;;;;;;;7.72;3.97;;;15.50;99.90;;;;;;4918995;28;20744;-50
2023/08/05 01:05:52;;;;;;;7.25;3.78;;;15.50;99.90;;;;;;4925162;28;20046;-53
2023/08/05 01:08:20;;;;;;;7.13;4.18;;;15.50;99.90;;;;;;4941626;28;20057;-55
2023/08/05 01:10:46;;;;;;;8.45;4.18;;;15.50;99.90;;;;;;4944752;28;20437;-56
2023/08/05 01:13:12;;;;;;;8.23;4.28;;;15.40;99.90;;;;;;4954140;28;20142;-54
2023/08/05 01:15:38;;;;;;;7.43;4.55;;;15.40;99.90;;;;;;4950505;28;20323;-51
2023/08/05 01:18:05;;;;;;;10.07;4.00;;;15.40;99.90;;;;;;4943069;28;20130;-53
2023/08/05 01:20:37;;;;;;;8.38;3.97;;;15.30;99.90;;;;;;4958754;28;20057;-54
2023/08/05 01:23:37;;;;;;;9.37;3.80;;;15.30;99.90;;;;;;4926761;28;20054;-52
2023/08/05 01:26:04;;;;;;;12.80;4.50;;;15.30;99.90;;;;;;4932190;28;20317;-53
2023/08/05 01:28:31;;;;;;;6.22;3.88;;;15.20;99.90;;;;;;4957563;28;20793;-51
2023/08/05 01:31:00;;;;;;;7.45;3.85;;;15.20;99.90;;;;;;4929606;28;20078;-54
2023/08/05 01:33:27;;;;;;;6.50;3.88;;;15.20;99.90;;;;;;4957628;28;20086;-52
2023/08/05 01:35:53;;;;;;;11.75;4.25;;;15.10;99.90;;;;;;4954238;28;20157;-53
2023/08/05 01:38:18;;;;;;;4.88;3.53;;;15.10;99.90;;;;;;4952938;28;20049;-53
2023/08/05 01:40:45;;;;;;;10.50;4.60;;;15.10;99.90;;;;;;4944937;28;20413;-53
2023/08/05 01:43:10;;;;;;;7.32;3.80;;;15.00;99.90;;;;;;4941741;28;20472;-54
2023/08/05 01:45:36;;;;;;;6.00;4.00;;;15.00;99.90;;;;;;4953541;28;20142;-53
2023/08/05 01:48:02;;;;;;;5.32;3.40;;;14.90;99.90;;;;;;4920104;28;20030;-53
2023/08/05 01:50:27;;;;;;;8.07;3.75;;;14.90;99.90;;;;;;4951765;28;20064;-54
2023/08/05 01:52:53;;;;;;;5.72;3.90;;;14.90;99.90;;;;;;4949948;28;20043;-54
2023/08/05 01:55:20;;;;;;;6.88;3.70;;;14.90;99.90;;;;;;4956916;28;20046;-53
2023/08/05 01:57:45;;;;;;;6.55;4.07;;;14.80;99.90;;;;;;4955597;28;20034;-54
2023/08/05 02:00:12;;;;;;;9.27;4.40;;;14.80;99.90;;;;;;4952919;28;20037;-53
2023/08/05 02:02:37;;;;;;;9.90;4.20;;;14.70;99.90;;;;;;4952142;28;20113;-53
2023/08/05 02:05:03;;;;;;;8.30;4.13;;;14.70;99.90;;;;;;4953079;28;20520;-54
2023/08/05 02:07:29;;;;;;;8.80;4.63;;;14.70;99.90;;;;;;4954566;28;20126;-52
2023/08/05 02:09:55;;;;;;;7.57;4.50;;;14.60;99.90;;;;;;4956383;28;20042;-54
2023/08/05 02:12:20;;;;;;;8.82;4.20;;;14.60;99.90;;;;;;4935551;28;20589;-51
2023/08/05 02:14:46;;;;;;;10.85;4.35;;;14.50;99.90;;;;;;4950338;28;20101;-52
2023/08/05 02:17:12;;;;;;;6.80;4.13;;;14.50;99.90;;;;;;4952403;28;20118;-53
2023/08/05 02:19:37;;;;;;;11.32;4.60;;;14.40;99.90;;;;;;4938461;28;20039;-53
2023/08/05 02:22:03;;;;;;;8.82;4.97;;;14.40;99.90;;;;;;4952611;28;20392;-52
2023/08/05 02:24:29;;;;;;;9.45;4.32;;;14.40;99.90;;;;;;4952914;28;20122;-52
2023/08/05 02:26:54;;;;;;;6.10;4.40;;;14.30;99.90;;;;;;4933726;28;20046;-49
2023/08/05 02:29:20;;;;;;;9.90;4.97;;;14.30;99.90;;;;;;4953897;28;20100;-50
2023/08/05 02:31:46;;;;;;;6.97;4.53;;;14.30;99.90;;;;;;4954807;28;20047;-51
2023/08/05 02:34:12;;;;;;;16.80;4.65;;;14.30;99.90;;;;;;4935437;28;20038;-51
2023/08/05 02:36:37;;;;;;;10.85;4.78;;;14.20;99.90;;;;;;4919691;28;20113;-51
2023/08/05 02:39:03;;;;;;;8.95;4.30;;;14.20;99.90;;;;;;4954095;28;20330;-49
2023/08/05 02:41:29;;;;;;;5.72;4.00;;;14.10;99.90;;;;;;4955361;28;20039;-52
2023/08/05 02:43:54;;;;;;;12.32;4.57;;;14.10;99.90;;;;;;4934501;28;20035;-51
2023/08/05 02:46:20;;;;;;;10.45;4.40;;;14.10;99.90;;;;;;4953815;28;20450;-51
2023/08/05 02:48:46;;;;;;;6.75;4.50;;;14.00;99.90;;;;;;4953857;28;20047;-52
2023/08/05 02:51:11;;;;;;;10.75;4.97;;;14.00;99.90;;;;;;4954406;28;20074;-52
2023/08/05 02:53:37;;;;;;;7.78;4.88;;;14.00;99.90;;;;;;4954721;28;20714;-50
2023/08/05 02:56:03;;;;;;;7.60;4.70;;;14.00;99.90;;;;;;4956124;28;20046;-51
2023/08/05 02:58:28;;;;;;;8.43;4.60;;;14.00;99.90;;;;;;4954615;28;20065;-52
2023/08/05 03:00:54;;;;;;;7.93;5.05;;;14.00;99.90;;;;;;4953728;28;20042;-54
2023/08/05 03:03:20;;;;;;;10.25;4.18;;;14.10;99.90;;;;;;4933075;28;20513;-50
2023/08/05 03:05:46;;;;;;;8.85;4.90;;;14.10;99.90;;;;;;4955992;28;20169;-52
2023/08/05 03:08:11;;;;;;;7.97;4.78;;;14.00;99.90;;;;;;4938046;28;20413;-51
2023/08/05 03:10:42;;;;;;;11.20;4.78;;;14.10;99.90;;;;;;4938492;28;20561;-50
2023/08/05 03:13:07;;;;;;;8.02;4.53;;;14.10;99.90;;;;;;4954231;28;20125;-52
2023/08/05 03:15:34;;;;;;;13.23;5.10;;;14.10;99.90;;;;;;4936618;28;20408;-51
2023/08/05 03:17:59;;;;;;;10.30;5.20;;;14.10;99.90;;;;;;4951971;28;20043;-52
2023/08/05 03:20:27;;;;;;;9.20;5.05;;;14.10;99.90;;;;;;4952229;28;20047;-49
2023/08/05 03:22:53;;;;;;;10.45;5.18;;;14.10;99.90;;;;;;4953895;28;20109;-53
2023/08/05 03:25:21;;;;;;;9.02;5.40;;;14.10;99.90;;;;;;4952275;28;20086;-49
2023/08/05 03:27:48;;;;;;;11.55;5.63;;;14.10;99.90;;;;;;4957646;28;20444;-52
2023/08/05 03:30:14;;;;;;;8.90;6.05;;;14.10;99.90;;;;;;4954289;28;20512;-52
2023/08/05 03:32:40;;;;;;;9.32;6.20;;;14.10;99.90;;;;;;4953446;28;20039;-50
2023/08/05 03:35:06;;;;;;;10.32;5.45;;;14.10;99.90;;;;;;4943172;28;20431;-52
2023/08/05 03:37:32;;;;;;;9.68;6.13;;;14.10;99.90;;;;;;4953191;28;20043;-49
2023/08/05 03:39:58;;;;;;;10.90;6.38;;;14.10;99.90;;;;;;4953419;28;20050;-49
2023/08/05 03:42:23;;;;;;;9.18;5.35;;;14.00;99.90;;;;;;4937486;28;20047;-49
2023/08/05 03:44:49;;;;;;;10.98;6.20;;;14.10;99.90;;;;;;4954119;28;20125;-51
2023/08/05 03:47:15;;;;;;;9.10;5.43;;;14.10;99.90;;;;;;4954788;28;20422;-55
2023/08/05 03:49:41;;;;;;;12.32;6.00;;;14.10;99.90;;;;;;4952966;28;20062;-52
2023/08/05 03:52:08;;;;;;;11.15;5.00;;;14.10;99.90;;;;;;4937638;28;20054;-52
2023/08/05 03:54:33;;;;;;;7.82;4.63;;;14.10;99.90;;;;;;4926339;28;20051;-48
2023/08/05 03:56:59;;;;;;;9.13;5.28;;;14.10;99.90;;;;;;4946147;28;20063;-52
2023/08/05 03:59:25;;;;;;;9.15;4.93;;;14.10;99.90;;;;;;4947505;28;20133;-50
2023/08/05 04:01:52;;;;;;;13.40;5.60;;;14.10;99.90;;;;;;4949796;28;20117;-52
2023/08/05 04:04:17;;;;;;;11.70;5.90;;;14.10;99.90;;;;;;4948132;28;20053;-49
2023/08/05 04:06:45;;;;;;;12.75;5.30;;;14.20;99.90;;;;;;4950870;28;20046;-49
2023/08/05 04:09:12;;;;;;;10.18;5.20;;;14.20;99.90;;;;;;4949327;28;20051;-50
2023/08/05 04:11:38;;;;;;;11.75;5.47;;;14.20;99.90;;;;;;4949231;28;20049;-51
2023/08/05 04:14:04;;;;;;;9.73;4.80;;;14.20;99.90;;;;;;4934300;28;24133;-52
2023/08/05 04:16:30;;;;;;;8.85;4.90;;;14.20;99.90;;;;;;4947546;28;20041;-51
2023/08/05 04:18:57;;;;;;;9.75;4.90;;;14.10;99.90;;;;;;4951759;28;20043;-55
2023/08/05 04:21:27;;;;;;;7.25;4.35;;;14.20;99.90;;;;;;4949709;28;20405;-51
2023/08/05 04:23:54;;;;;;;11.00;4.40;;;14.20;99.90;;;;;;4953404;28;20117;-49
2023/08/05 04:26:20;;;;;;;10.95;4.53;;;14.20;99.90;;;;;;4952868;28;20553;-51
2023/08/05 04:28:46;;;;;;;9.68;4.20;;;14.20;99.90;;;;;;4956823;28;20130;-51
2023/08/05 04:31:13;;;;;;;9.93;4.10;;;14.20;99.90;;;;;;4956329;28;20585;-49
2023/08/05 04:33:39;;;;;;;6.80;3.78;;;14.20;99.90;;;;;;4958792;28;20144;-52
2023/08/05 04:36:05;;;;;;;10.27;4.18;;;14.20;99.90;;;;;;4957328;28;20197;-49
2023/08/05 04:38:30;;;;;;;7.22;4.05;;;14.20;99.90;;;;;;4958568;28;20066;-52
2023/08/05 04:40:57;;;;;;;9.25;4.20;;;14.20;99.90;;;;;;4928198;28;20505;-51
2023/08/05 04:43:24;;;;;;;7.72;4.18;;;14.20;99.90;;;;;;4940849;28;20074;-52
2023/08/05 04:45:54;;;;;;;9.23;4.60;;;14.30;99.90;;;;;;4940096;28;20046;-53
2023/08/05 04:48:19;;;;;;;12.25;4.65;;;14.30;99.90;;;;;;4956390;28;20054;-52
2023/08/05 04:50:45;;;;;;;8.02;4.45;;;14.30;99.90;;;;;;4957591;28;20514;-53
2023/08/05 04:53:14;;;;;;;8.38;4.35;;;14.30;99.90;;;;;;4959060;28;20066;-50
2023/08/05 04:55:39;;;;;;;13.43;4.70;;;14.40;99.90;;;;;;4958952;28;20046;-51
2023/08/05 04:58:05;;;;;;;10.27;4.30;;;14.40;99.90;;;;;;4956687;28;20444;-51
2023/08/05 05:00:31;;;;;;;8.02;4.40;;;14.40;99.90;;;;;;4935684;28;20045;-49
2023/08/05 05:02:56;;;;;;;8.27;3.90;;;14.50;99.90;;;;;;4956337;28;20071;-51
2023/08/05 05:05:22;;;;;;;6.70;4.15;;;14.50;99.90;;;;;;4956773;28;20042;-53
2023/08/05 05:07:48;;;;;;;9.82;4.30;;;14.50;99.90;;;;;;4944539;28;20090;-51
2023/08/05 05:10:13;;;;;;;7.05;4.10;;;14.50;99.90;;;;;;4955267;28;20047;-48
2023/08/05 05:12:39;;;;;;;6.63;4.28;;;14.60;99.90;;;;;;4956895;28;20050;-50
2023/08/05 05:15:05;;;;;;;7.38;4.40;;;14.70;99.90;;;;;;4956952;28;20109;-52
2023/08/05 05:17:35;;;;;;;9.02;4.32;;;14.70;99.90;;;;;;4957234;28;20496;-53
2023/08/05 05:20:05;;;;;;;6.68;4.85;;;14.70;99.90;;;;;;4952474;28;20193;-52
2023/08/05 05:22:31;;;;;;;12.05;3.97;;;14.80;99.90;;;;;;4941706;28;20482;-51
2023/08/05 05:24:58;;;;;;;11.07;4.10;;;14.80;99.90;;;;;;4954518;28;20039;-53
2023/08/05 05:27:24;;;;;;;7.47;4.00;;;14.90;99.90;;;;;;4955494;28;20877;-52
2023/08/05 05:29:49;;;;;;;7.85;4.03;;;14.90;99.90;;;;;;4937454;28;20050;-50
2023/08/05 05:32:15;;;;;;;8.50;3.80;;;15.00;99.90;;;;;;4953814;28;20035;-51
2023/08/05 05:34:41;;;;;;;7.05;3.90;;;15.00;99.90;;;;;;4952336;28;20043;-50
2023/08/05 05:37:07;;;;;;;8.27;4.32;;;15.00;99.90;;;;;;4948965;28;20509;-49
2023/08/05 05:39:32;;;;;;;7.43;4.03;;;15.10;99.90;;;;;;4949667;28;20053;-51
2023/08/05 05:41:59;;;;;;;7.30;4.00;;;15.10;99.90;;;;;;4947583;28;20057;-52
2023/08/05 05:44:26;;;;;;;6.53;3.70;;;15.10;99.90;;;;;;4933879;28;20110;-53
2023/08/05 05:46:52;;;;;;;8.15;4.28;;;15.10;99.90;;;;;;4936910;28;20050;-50
2023/08/05 05:49:19;;;;;;;8.90;4.07;;;15.10;99.90;;;;;;4954455;28;20059;-54
2023/08/05 05:51:46;;;;;;;8.85;3.97;;;15.10;99.90;;;;;;4955574;28;20047;-55
2023/08/05 05:54:12;;;;;;;9.65;3.65;;;15.10;99.90;;;;;;4955590;28;20045;-50
2023/08/05 05:56:38;;;;;;;8.65;3.28;;;15.20;99.90;;;;;;4922375;28;20059;-51
2023/08/05 05:59:04;;;;;;;10.23;3.67;;;15.10;99.90;;;;;;4954763;28;20046;-50
2023/08/05 06:01:30;;;;;;;8.02;3.38;;;15.10;99.90;;;;;;4927457;28;20047;-52
2023/08/05 06:03:56;;;;;;;6.30;3.20;;;15.10;99.90;;;;;;4950600;28;20578;-49
2023/08/05 06:06:21;;;;;;;6.75;3.08;;;15.10;99.90;;;;;;4948125;28;20042;-53
2023/08/05 06:08:47;;;;;;;6.10;3.00;;;15.10;99.90;;;;;;4950556;28;20046;-53
2023/08/05 06:11:13;;;;;;;7.68;3.42;;;15.20;99.90;;;;;;4948993;28;20485;-51
2023/08/05 06:13:39;;;;;;;7.40;3.33;;;15.20;99.90;;;;;;4948217;28;20473;-50
2023/08/05 06:16:05;;;;;;;6.72;3.15;;;15.30;99.90;;;;;;4949795;28;20047;-51
2023/08/05 06:18:33;;;;;;;5.15;2.90;;;15.30;99.90;;;;;;4931568;28;20279;-53
2023/08/05 06:21:00;;;;;;;5.97;2.97;;;15.40;99.90;;;;;;4952168;28;20584;-51
2023/08/05 06:23:25;;;;;;;6.55;2.97;;;15.50;99.90;;;;;;4954070;28;20040;-53
2023/08/05 06:25:51;;;;;;;5.25;2.75;;;15.50;99.90;;;;;;4954673;28;20102;-52
2023/08/05 06:28:17;;;;;;;7.38;3.08;;;15.60;99.90;;;;;;4935798;28;20108;-51
2023/08/05 06:30:43;;;;;;;6.10;2.95;;;15.70;99.90;;;;;;4954358;28;20043;-52
2023/08/05 06:33:09;;;;;;;7.13;2.80;;;15.80;99.90;;;;;;4952483;28;20122;-52
2023/08/05 06:35:35;;;;;;;8.27;2.80;;;15.90;99.90;;;;;;4955106;28;20039;-54
2023/08/05 06:38:01;;;;;;;5.38;2.40;;;15.90;99.90;;;;;;4950528;28;20509;-52
2023/08/05 06:40:27;;;;;;;4.78;2.50;;;16.00;99.90;;;;;;4951439;28;20043;-53
2023/08/05 06:42:52;;;;;;;6.32;2.88;;;16.00;99.90;;;;;;4947741;28;20214;-49
2023/08/05 06:45:18;;;;;;;4.53;2.70;;;16.10;99.90;;;;;;4950349;28;20077;-52
2023/08/05 06:47:44;;;;;;;3.70;2.40;;;16.10;99.90;;;;;;4952732;28;20117;-53
2023/08/05 06:50:10;;;;;;;5.55;2.70;;;16.10;99.90;;;;;;4950387;28;20070;-53
2023/08/05 06:52:36;;;;;;;6.68;2.47;;;16.20;99.90;;;;;;4954039;28;20061;-52
2023/08/05 06:55:04;;;;;;;4.68;2.72;;;16.30;99.90;;;;;;4952211;28;20389;-53
2023/08/05 06:57:31;;;;;;;5.50;2.65;;;16.30;99.90;;;;;;4950382;28;20034;-54
2023/08/05 06:59:57;;;;;;;6.25;2.22;;;16.50;99.90;;;;;;4956200;28;20047;-52
2023/08/05 07:02:24;;;;;;;6.38;2.60;;;16.60;99.90;;;;;;4934540;28;20494;-53
2023/08/05 07:04:51;;;;;;;8.18;2.20;;;16.80;99.90;;;;;;4951012;28;20504;-53
2023/08/05 07:07:16;;;;;;;7.53;2.35;;;16.90;99.90;;;;;;4949945;28;20043;-52
2023/08/05 07:09:42;;;;;;;5.05;2.30;;;17.10;99.90;;;;;;4932255;28;20066;-50
2023/08/05 07:12:08;;;;;;;4.20;2.40;;;17.20;99.90;;;;;;4950628;28;20472;-50
2023/08/05 07:14:34;;;;;;;5.85;2.60;;;17.30;99.90;;;;;;4950995;28;20074;-51
2023/08/05 07:16:59;;;;;;;5.43;2.30;;;17.30;99.90;;;;;;4929473;28;20082;-51
2023/08/05 07:19:25;;;;;;;3.85;2.60;;;17.40;99.90;;;;;;4944122;28;20094;-52
2023/08/05 07:21:51;;;;;;;5.40;2.38;;;17.40;99.90;;;;;;4931555;28;20047;-53
2023/08/05 07:24:20;;;;;;;3.63;2.17;;;17.40;99.90;;;;;;4927021;28;20093;-51
2023/08/05 07:26:46;;;;;;;3.60;2.20;;;17.40;99.90;;;;;;4949644;28;20601;-51
2023/08/05 07:29:11;;;;;;;3.67;2.42;;;17.40;99.90;;;;;;4943772;28;20047;-53
2023/08/05 07:31:37;;;;;;;6.57;2.35;;;17.50;99.90;;;;;;4947875;28;20472;-51
2023/08/05 07:34:06;;;;;;;6.15;2.35;;;17.50;99.90;;;;;;4949156;28;20482;-52
2023/08/05 07:36:31;;;;;;;6.22;2.53;;;17.60;99.90;;;;;;4949057;28;20039;-55
2023/08/05 07:38:59;;;;;;;4.28;2.30;;;17.60;99.90;;;;;;4928114;28;20561;-53
2023/08/05 07:41:26;;;;;;;3.83;1.88;;;17.60;99.90;;;;;;4949857;28;20043;-55
2023/08/05 07:43:57;;;;;;;3.53;2.20;;;17.70;99.90;;;;;;4889578;28;20046;-53
2023/08/05 07:46:25;;;;;;;7.95;2.70;;;17.70;99.90;;;;;;4940798;28;20078;-53
2023/08/05 07:48:56;;;;;;;5.25;2.25;;;17.70;99.90;;;;;;4940425;28;20164;-53
2023/08/05 07:51:23;;;;;;;3.80;2.00;;;17.70;99.90;;;;;;4946993;28;20122;-53
2023/08/05 07:53:49;;;;;;;6.82;2.35;;;17.80;99.90;;;;;;4944403;28;20097;-52
2023/08/05 07:56:16;;;;;;;3.22;2.28;;;17.80;99.90;;;;;;4928996;28;20367;-53
2023/08/05 07:58:45;;;;;;;3.30;2.38;;;17.90;99.90;;;;;;4942613;28;20437;-52
2023/08/05 08:01:13;;;;;;;4.40;2.40;;;18.00;99.90;;;;;;4916916;28;20572;-53
2023/08/05 08:03:43;;;;;;;4.68;1.90;;;18.10;99.90;;;;;;4937821;28;20121;-53
2023/08/05 08:06:09;;;;;;;5.32;2.17;;;18.10;99.90;;;;;;4933552;28;20051;-54
2023/08/05 08:08:35;;;;;;;4.18;2.40;;;18.30;99.90;;;;;;4941693;28;20042;-52
2023/08/05 08:11:01;;;;;;;4.15;1.98;;;18.40;99.90;;;;;;4947340;28;20061;-54
2023/08/05 08:13:26;;;;;;;3.63;2.03;;;18.60;99.90;;;;;;4930693;28;20132;-53
2023/08/05 08:15:52;;;;;;;4.53;1.85;;;18.70;99.90;;;;;;4945317;28;20047;-54
2023/08/05 08:18:18;;;;;;;5.50;2.00;;;18.70;99.90;;;;;;4932684;28;20059;-53
2023/08/05 08:20:53;;;;;;;4.07;2.15;;;18.70;99.90;;;;;;4949767;28;20101;-54
2023/08/05 08:23:19;;;;;;;7.35;2.38;;;18.60;99.90;;;;;;4955253;28;20054;-51
2023/08/05 08:25:45;;;;;;;4.18;2.00;;;18.60;99.90;;;;;;4953677;28;20050;-51
2023/08/05 08:28:11;;;;;;;5.13;2.22;;;18.50;99.90;;;;;;4954804;28;20043;-54
2023/08/05 08:30:36;;;;;;;5.93;2.00;;;18.50;99.90;;;;;;4952951;28;20042;-55
2023/08/05 08:33:03;;;;;;;5.30;1.90;;;18.60;99.90;;;;;;4954000;28;20078;-55
2023/08/05 08:35:29;;;;;;;5.90;2.40;;;18.70;99.90;;;;;;4954723;28;20066;-55
2023/08/05 08:37:55;;;;;;;3.72;1.90;;;18.80;99.90;;;;;;4954252;28;20031;-54
2023/08/05 08:40:21;;;;;;;7.32;2.22;;;18.90;99.90;;;;;;4955890;28;20121;-52
2023/08/05 08:42:49;;;;;;;4.82;1.90;;;19.00;99.90;;;;;;4954271;28;20045;-53
2023/08/05 08:45:17;;;;;;;3.22;2.00;;;19.10;99.90;;;;;;4940110;28;20038;-54
2023/08/05 08:47:44;;;;;;;5.07;2.00;;;19.10;99.90;;;;;;4950735;28;20061;-54
2023/08/05 08:50:11;;;;;;;3.38;1.77;;;19.20;99.90;;;;;;4927197;28;20061;-51
2023/08/05 08:52:40;;;;;;;2.72;1.88;;;19.20;99.90;;;;;;4940034;28;20047;-51
2023/08/05 08:55:08;;;;;;;3.72;2.30;;;19.20;99.90;;;;;;4945087;28;20046;-54
2023/08/05 08:57:34;;;;;;;6.55;2.03;;;19.30;99.90;;;;;;4925119;28;20138;-55
2023/08/05 09:00:00;;;;;;;2.38;1.80;;;19.30;99.90;;;;;;4944658;28;20043;-56
2023/08/05 09:02:26;;;;;;;3.45;1.88;;;19.40;99.90;;;;;;4940753;28;20684;-54
2023/08/05 09:04:53;;;;;;;5.95;2.28;;;19.60;99.90;;;;;;4942886;28;20620;-53
2023/08/05 09:07:22;;;;;;;4.40;1.80;;;19.70;99.90;;;;;;4931105;28;20478;-53
2023/08/05 09:09:48;;;;;;;3.47;1.98;;;19.70;99.90;;;;;;4923548;28;20046;-51
2023/08/05 09:12:14;;;;;;;3.70;1.80;;;19.70;99.90;;;;;;4930176;28;20034;-51
2023/08/05 09:14:40;;;;;;;3.22;1.88;;;19.70;99.90;;;;;;4931646;28;20127;-53
2023/08/05 09:17:06;;;;;;;3.53;1.80;;;19.60;99.90;;;;;;4946579;28;20572;-54
2023/08/05 09:19:32;;;;;;;4.20;1.80;;;19.70;99.90;;;;;;4945565;28;20478;-53
2023/08/05 09:22:02;;;;;;;2.88;2.05;;;19.70;99.90;;;;;;4951791;28;20049;-55
2023/08/05 09:24:28;;;;;;;2.35;1.70;;;19.80;99.90;;;;;;4950499;28;20603;-54
2023/08/05 09:26:58;;;;;;;4.78;1.80;;;19.80;99.90;;;;;;4948008;28;20082;-53
2023/08/05 09:29:26;;;;;;;3.35;1.88;;;19.80;99.90;;;;;;4946168;28;20125;-53
2023/08/05 09:32:04;;;;;;;2.60;1.58;;;19.90;99.90;;;;;;4950612;28;20262;-52
2023/08/05 09:34:38;;;;;;;3.40;1.77;;;20.10;99.90;;;;;;4928096;28;20101;-55
2023/08/05 09:37:05;;;;;;;2.85;1.80;;;20.30;99.90;;;;;;4946872;28;20050;-53
2023/08/05 09:39:49;;;;;;;3.50;1.77;;;20.50;99.90;;;;;;4947688;28;20054;-51
2023/08/05 09:42:24;;;;;;;2.75;1.85;;;20.60;99.90;;;;;;4946513;28;20039;-53
2023/08/05 09:44:57;;;;;;;3.33;1.42;;;20.80;99.90;;;;;;4948650;28;20450;-54
2023/08/05 09:47:30;;;;;;;3.85;1.77;;;20.80;99.90;;;;;;4929125;28;20516;-53
2023/08/05 09:49:59;;;;;;;2.53;1.50;;;20.90;99.90;;;;;;4945588;28;21687;-52
2023/08/05 09:52:28;;;;;;;3.35;1.50;;;20.90;99.90;;;;;;4945607;28;20383;-52
2023/08/05 09:55:02;;;;;;;2.55;1.70;;;20.90;99.90;;;;;;4927621;28;20046;-52
2023/08/05 09:57:30;;;;;;;2.65;1.60;;;21.00;99.90;;;;;;4947727;28;20057;-54
2023/08/05 09:59:58;;;;;;;2.38;1.48;;;21.10;99.60;;;;;;4946882;28;20050;-54
2023/08/05 10:02:25;;;;;;;2.80;1.63;;;21.30;99.30;;;;;;4930868;28;20054;-51
2023/08/05 10:04:56;;;;;;;3.30;1.58;;;21.40;98.80;;;;;;4942540;28;20047;-52
2023/08/05 10:07:23;;;;;;;2.65;1.48;;;21.60;98.50;;;;;;4946166;28;20604;-51
2023/08/05 10:09:50;;;;;;;1.67;1.48;;;21.60;98.10;;;;;;4951846;28;20117;-55
2023/08/05 10:12:25;;;;;;;1.40;1.30;;;21.50;97.00;;;;;;4927698;28;20050;-54
2023/08/05 10:14:53;;;;;;;4.00;1.55;;;21.60;97.00;;;;;;4915991;28;20050;-52
2023/08/05 10:17:20;;;;;;;4.40;1.30;;;21.60;96.70;;;;;;4922879;28;20053;-54
2023/08/05 10:19:49;;;;;;;2.92;1.20;;;21.70;96.10;;;;;;4946785;28;20047;-53
2023/08/05 10:22:23;;;;;;;2.15;1.40;;;21.80;95.50;;;;;;4929177;28;20070;-52
2023/08/05 10:24:49;;;;;;;2.35;1.60;;;21.70;95.20;;;;;;4929465;28;20043;-52
2023/08/05 10:27:15;;;;;;;1.67;1.50;;;21.70;95.10;;;;;;4946561;28;20359;-54
2023/08/05 10:29:52;;;;;;;2.80;1.50;;;21.60;95.30;;;;;;4926370;28;20149;-55
2023/08/05 10:32:31;;;;;;;2.13;1.55;;;21.70;95.90;;;;;;4945531;28;20046;-53
2023/08/05 10:35:29;;;;;;;2.30;1.50;;;21.80;95.80;;;;;;4945198;28;20039;-55
2023/08/05 10:38:13;;;;;;;3.90;1.73;;;22.00;96.10;;;;;;4925188;28;20047;-52
2023/08/05 10:40:41;;;;;;;2.08;1.58;;;22.20;96.30;;;;;;4927210;28;20053;-54
2023/08/05 10:43:09;;;;;;;3.90;2.00;;;22.20;96.10;;;;;;4943945;28;20121;-55
2023/08/05 10:45:38;;;;;;;2.22;1.50;;;22.10;96.20;;;;;;4927526;28;20037;-53
2023/08/05 10:48:08;;;;;;;2.65;1.30;;;22.10;95.60;;;;;;4943989;28;20654;-54
2023/08/05 10:50:36;;;;;;;3.25;1.50;;;22.10;95.20;;;;;;4929688;28;20059;-54
2023/08/05 10:53:12;;;;;;;1.52;1.42;;;22.20;94.90;;;;;;4934383;28;20050;-51
2023/08/05 10:55:55;;;;;;;3.03;1.45;;;22.20;94.80;;;;;;4937531;28;20634;-55
2023/08/05 10:58:21;;;;;;;;;;;22.40;94.40;;;;;;4945816;28;20667;-52
2023/08/05 11:01:04;;;;;;;2.83;1.63;;;22.40;94.50;;;;;;4950719;28;20050;-54
2023/08/05 11:03:50;;;;;;;2.70;1.67;;;22.50;94.40;;;;;;4939955;28;20401;-54
2023/08/05 11:06:22;;;;;;;2.08;1.50;;;22.50;94.00;;;;;;4945882;28;20583;-53
2023/08/05 11:08:48;;;;;;;1.60;1.43;;;22.70;94.40;;;;;;4942272;28;20035;-53
2023/08/05 11:11:15;;;;;;;4.70;1.60;;;22.80;94.40;;;;;;4932128;28;20074;-52
2023/08/05 11:13:48;;;;;;;4.22;1.73;;;23.10;94.20;;;;;;4942822;28;20043;-53
2023/08/05 11:16:18;;;;;;;2.50;1.60;;;23.30;93.30;;;;;;4945516;28;20571;-53
2023/08/05 11:19:11;;;;;;;2.15;1.52;;;23.40;92.20;;;;;;4947925;28;20047;-53
2023/08/05 11:21:42;;;;;;;2.95;1.50;;;23.40;92.00;;;;;;4929615;28;20101;-52
2023/08/05 11:24:15;;;;;;;4.95;1.73;;;23.20;91.90;;;;;;4953448;28;20046;-55
2023/08/05 11:26:41;;;;;;;2.75;1.45;;;23.10;92.60;;;;;;4954430;28;20118;-55
2023/08/05 11:29:07;;;;;;;2.50;1.70;;;23.10;92.40;;;;;;4931752;28;20043;-53
2023/08/05 11:31:33;;;;;;;3.38;1.83;;;23.10;92.20;;;;;;4951634;28;20121;-54
2023/08/05 11:33:59;;;;;;;3.80;1.73;;;23.10;91.80;;;;;;4952613;28;20045;-54
2023/08/05 11:36:29;;;;;;;2.90;1.73;;;23.20;91.40;;;;;;4949788;28;20066;-54
2023/08/05 11:39:00;;;;;;;3.85;1.98;;;23.20;91.60;;;;;;4930502;28;20047;-53
2023/08/05 11:41:26;;;;;;;5.53;1.60;;;23.20;92.00;;;;;;4955181;28;20489;-55
2023/08/05 11:43:54;;;;;;;3.50;1.85;;;23.20;91.40;;;;;;4954510;28;20042;-54
2023/08/05 11:46:29;;;;;;;1.80;1.52;;;23.20;91.80;;;;;;4955176;28;20042;-58
2023/08/05 11:49:12;;;;;;;4.03;1.80;;;23.10;91.50;;;;;;4936225;28;20603;-57
2023/08/05 11:51:46;;;;;;;3.42;1.80;;;23.00;91.50;;;;;;4953950;28;20481;-57
2023/08/05 11:54:11;;;;;;;4.95;1.60;;;22.90;91.90;;;;;;4955045;28;20039;-55
2023/08/05 11:56:37;;;;;;;3.00;2.00;;;22.80;91.90;;;;;;4954291;28;20509;-56
2023/08/05 11:59:03;;;;;;;4.60;2.13;;;22.70;91.80;;;;;;4953891;28;20146;-56
2023/08/05 12:01:28;;;;;;;3.92;2.08;;;22.60;91.70;;;;;;4942761;28;20039;-55
2023/08/05 12:03:57;;;;;;;3.15;1.90;;;22.60;91.70;;;;;;4931997;28;20050;-56
2023/08/05 12:06:26;;;;;;;3.38;1.80;;;22.50;91.60;;;;;;4950213;28;20038;-55
2023/08/05 12:08:59;;;;;;;2.55;1.80;;;22.40;91.60;;;;;;4947066;28;20046;-55
2023/08/05 12:11:25;;;;;;;4.50;1.90;;;22.30;91.90;;;;;;4949961;28;20139;-55
2023/08/05 12:13:51;;;;;;;3.60;2.03;;;22.20;92.10;;;;;;4954268;28;20169;-56
2023/08/05 12:16:18;;;;;;;2.90;1.98;;;22.20;92.00;;;;;;4953537;28;20054;-55
2023/08/05 12:18:47;;;;;;;3.60;2.17;;;22.10;91.60;;;;;;4954036;28;20039;-55
2023/08/05 12:21:13;;;;;;;2.33;1.80;;;22.00;91.70;;;;;;4955572;28;20098;-56
2023/08/05 12:23:42;;;;;;;3.28;2.08;;;22.00;92.20;;;;;;4948551;28;20085;-55
2023/08/05 12:26:09;;;;;;;3.22;1.98;;;22.00;91.80;;;;;;4951543;28;20487;-56
2023/08/05 12:28:35;;;;;;;4.38;2.13;;;21.90;91.80;;;;;;4952589;28;20047;-55
2023/08/05 12:31:00;;;;;;;3.97;2.10;;;21.90;91.90;;;;;;4955475;28;20062;-57
2023/08/05 12:33:27;;;;;;;4.40;1.83;;;21.80;92.00;;;;;;4943425;28;20055;-55
2023/08/05 12:35:53;;;;;;;3.53;2.00;;;21.60;92.00;;;;;;4952502;28;20075;-56
2023/08/05 12:38:19;;;;;;;3.38;1.95;;;21.50;92.40;;;;;;4952908;28;20045;-56
2023/08/05 12:40:44;;;;;;;2.70;2.05;;;21.40;92.70;;;;;;4954073;28;20064;-55
2023/08/05 12:43:12;;;;;;;5.10;2.03;;;21.30;92.90;;;;;;4956041;28;20047;-55
2023/08/05 12:45:41;;;;;;;4.22;2.35;;;21.20;93.00;;;;;;4946983;28;20413;-56